createdAt,value
2023-05-09T00:00:47.732Z,55.60
2023-05-09T00:03:14.663Z,55.60
2023-05-09T00:05:41.873Z,55.70
2023-05-09T00:08:08.830Z,55.70
2023-05-09T00:10:35.917Z,55.60
2023-05-09T00:13:02.870Z,55.60
2023-05-09T00:15:30.397Z,55.60
2023-05-09T00:17:57.407Z,55.90
2023-05-09T00:20:24.367Z,55.60
2023-05-09T00:22:51.566Z,55.70
2023-05-09T00:25:18.409Z,55.70
2023-05-09T00:27:45.220Z,55.70
2023-05-09T00:30:12.311Z,55.70
2023-05-09T00:32:41.160Z,55.70
2023-05-09T00:35:09.020Z,55.70
2023-05-09T00:37:36.088Z,55.70
2023-05-09T00:40:05.093Z,56.30
2023-05-09T00:42:32.020Z,55.80
2023-05-09T00:44:58.946Z,55.90
2023-05-09T00:47:28.254Z,55.90
2023-05-09T00:49:57.364Z,55.90
2023-05-09T00:52:26.026Z,55.80
2023-05-09T00:54:54.516Z,55.90
2023-05-09T00:57:22.101Z,56.60
2023-05-09T00:59:49.804Z,56.10
2023-05-09T01:02:18.191Z,56.10
2023-05-09T01:04:48.665Z,56.20
2023-05-09T01:07:27.554Z,56.20
2023-05-09T01:10:01.583Z,56.00
2023-05-09T01:13:17.288Z,56.70
2023-05-09T01:15:55.413Z,56.00
2023-05-09T01:18:40.251Z,56.70
2023-05-09T01:21:14.195Z,56.00
2023-05-09T01:23:44.283Z,56.00
2023-05-09T01:26:26.103Z,56.10
2023-05-09T01:29:02.354Z,56.20
2023-05-09T01:31:30.291Z,56.20
2023-05-09T01:34:00.027Z,56.20
2023-05-09T01:36:32.838Z,56.20
2023-05-09T01:39:01.958Z,56.20
2023-05-09T01:41:31.626Z,56.20
2023-05-09T01:44:03.332Z,56.80
2023-05-09T01:46:31.382Z,56.20
2023-05-09T01:48:59.604Z,56.40
2023-05-09T01:51:27.668Z,56.30
2023-05-09T01:53:56.742Z,56.40
2023-05-09T01:56:24.754Z,56.20
2023-05-09T01:58:52.908Z,56.50
2023-05-09T02:01:20.301Z,56.20
2023-05-09T02:03:50.644Z,56.30
2023-05-09T02:06:20.733Z,56.30
2023-05-09T02:08:48.426Z,57.00
2023-05-09T02:11:15.497Z,56.30
2023-05-09T02:13:42.317Z,56.40
2023-05-09T02:16:10.255Z,56.40
2023-05-09T02:18:37.224Z,56.40
2023-05-09T02:21:04.420Z,56.50
2023-05-09T02:23:31.698Z,56.50
2023-05-09T02:25:58.599Z,56.70
2023-05-09T02:28:27.247Z,56.50
2023-05-09T02:30:57.117Z,56.60
2023-05-09T02:33:25.920Z,56.50
2023-05-09T02:35:53.626Z,56.50
2023-05-09T02:38:21.380Z,56.60
2023-05-09T02:40:52.280Z,56.60
2023-05-09T02:43:19.656Z,56.60
2023-05-09T02:45:46.556Z,57.40
2023-05-09T02:48:13.464Z,56.70
2023-05-09T02:50:42.813Z,56.70
2023-05-09T02:53:09.969Z,56.80
2023-05-09T02:55:36.800Z,56.80
2023-05-09T02:58:13.633Z,57.50
2023-05-09T03:00:43.100Z,56.70
2023-05-09T03:03:10.763Z,57.20
2023-05-09T03:05:37.732Z,56.90
2023-05-09T03:08:05.073Z,56.80
2023-05-09T03:10:33.303Z,56.70
2023-05-09T03:13:00.364Z,57.00
2023-05-09T03:15:27.403Z,56.90
2023-05-09T03:17:54.556Z,56.80
2023-05-09T03:20:22.446Z,56.90
2023-05-09T03:22:49.672Z,56.70
2023-05-09T03:25:16.922Z,57.60
2023-05-09T03:27:44.549Z,57.00
2023-05-09T03:30:14.725Z,56.90
2023-05-09T03:32:43.295Z,57.10
2023-05-09T03:35:10.287Z,56.90
2023-05-09T03:37:37.281Z,57.00
2023-05-09T03:40:07.748Z,56.90
2023-05-09T03:42:40.962Z,56.90
2023-05-09T03:45:08.349Z,56.90
2023-05-09T03:47:35.618Z,57.00
2023-05-09T03:50:02.536Z,57.00
2023-05-09T03:52:29.603Z,57.00
2023-05-09T03:54:56.463Z,57.00
2023-05-09T03:57:23.263Z,57.10
2023-05-09T03:59:52.890Z,57.10
2023-05-09T04:02:20.512Z,57.20
2023-05-09T04:04:47.385Z,57.20
2023-05-09T04:07:16.850Z,57.20
2023-05-09T04:09:43.903Z,57.30
2023-05-09T04:12:10.936Z,57.30
2023-05-09T04:14:39.637Z,57.20
2023-05-09T04:17:06.784Z,57.20
2023-05-09T04:19:33.690Z,57.30
2023-05-09T04:22:00.536Z,57.20
2023-05-09T04:24:27.457Z,57.20
2023-05-09T04:26:54.784Z,57.20
2023-05-09T04:29:24.212Z,57.20
2023-05-09T04:31:54.731Z,57.20
2023-05-09T04:34:26.239Z,57.40
2023-05-09T04:36:54.140Z,57.20
2023-05-09T04:39:21.115Z,57.20
2023-05-09T04:41:57.556Z,57.20
2023-05-09T04:44:25.634Z,57.30
2023-05-09T04:46:55.006Z,57.20
2023-05-09T04:49:22.003Z,57.20
2023-05-09T04:51:48.829Z,57.40
2023-05-09T04:54:15.745Z,57.60
2023-05-09T04:56:43.239Z,57.30
2023-05-09T04:59:10.387Z,57.40
2023-05-09T05:01:37.277Z,57.40
2023-05-09T05:04:04.591Z,57.40
2023-05-09T05:06:33.015Z,57.30
2023-05-09T05:09:00.236Z,57.30
2023-05-09T05:11:27.105Z,57.40
2023-05-09T05:13:54.230Z,57.40
2023-05-09T05:16:21.819Z,57.30
2023-05-09T05:18:49.142Z,57.30
2023-05-09T05:21:16.910Z,57.40
2023-05-09T05:23:44.566Z,57.30
2023-05-09T05:26:11.380Z,57.20
2023-05-09T05:28:38.562Z,57.10
2023-05-09T05:31:06.296Z,57.00
2023-05-09T05:33:33.210Z,57.00
2023-05-09T05:36:01.193Z,57.00
2023-05-09T05:38:28.059Z,56.90
2023-05-09T05:40:56.887Z,57.00
2023-05-09T05:43:25.331Z,56.90
2023-05-09T05:45:52.282Z,56.90
2023-05-09T05:48:22.459Z,56.90
2023-05-09T05:50:49.273Z,56.90
2023-05-09T05:53:19.253Z,56.80
2023-05-09T05:55:47.096Z,56.90
2023-05-09T05:58:13.943Z,56.90
2023-05-09T06:00:41.098Z,57.00
2023-05-09T06:03:13.967Z,57.10
2023-05-09T06:05:47.443Z,57.20
2023-05-09T06:08:14.470Z,57.10
2023-05-09T06:10:41.738Z,57.00
2023-05-09T06:13:08.939Z,56.90
2023-05-09T06:15:37.829Z,56.80
2023-05-09T06:18:04.859Z,56.90
2023-05-09T06:20:31.749Z,56.80
2023-05-09T06:22:58.539Z,56.90
2023-05-09T06:25:25.356Z,56.90
2023-05-09T06:27:52.131Z,57.00
2023-05-09T06:30:26.207Z,57.10
2023-05-09T06:32:54.298Z,57.10
2023-05-09T06:35:21.233Z,57.20
2023-05-09T06:37:48.869Z,57.30
2023-05-09T06:40:16.503Z,57.60
2023-05-09T06:42:43.270Z,57.80
2023-05-09T06:45:10.715Z,58.40
2023-05-09T06:47:37.644Z,59.10
2023-05-09T06:50:04.699Z,59.40
2023-05-09T06:52:31.842Z,60.30
2023-05-09T06:54:58.646Z,62.20
2023-05-09T06:57:25.491Z,63.40
2023-05-09T06:59:52.281Z,64.30
2023-05-09T07:02:19.329Z,64.30
2023-05-09T07:04:46.233Z,63.80
2023-05-09T07:07:14.830Z,62.80
2023-05-09T07:09:41.602Z,62.90
2023-05-09T07:12:08.479Z,62.20
2023-05-09T07:14:35.699Z,62.60
2023-05-09T07:17:21.383Z,63.20
2023-05-09T07:19:49.838Z,64.40
2023-05-09T07:22:16.581Z,64.30
2023-05-09T07:24:46.614Z,62.20
2023-05-09T07:27:13.539Z,62.00
2023-05-09T07:29:40.391Z,61.80
2023-05-09T07:32:07.375Z,61.50
2023-05-09T07:34:34.646Z,61.30
2023-05-09T07:37:01.556Z,60.90
2023-05-09T07:39:28.354Z,60.70
2023-05-09T07:41:55.190Z,60.40
2023-05-09T07:44:22.251Z,60.30
2023-05-09T07:46:49.084Z,60.00
2023-05-09T07:49:15.974Z,60.00
2023-05-09T07:51:42.805Z,59.80
2023-05-09T07:54:10.185Z,59.60
2023-05-09T07:56:37.191Z,59.50
2023-05-09T07:59:04.113Z,59.50
2023-05-09T08:01:31.691Z,59.40
2023-05-09T08:03:58.627Z,59.60
2023-05-09T08:06:26.354Z,59.40
2023-05-09T08:08:53.328Z,59.10
2023-05-09T08:11:20.172Z,59.10
2023-05-09T08:13:48.303Z,59.00
2023-05-09T08:16:17.266Z,59.80
2023-05-09T08:18:44.598Z,58.90
2023-05-09T08:21:11.708Z,58.80
2023-05-09T08:23:38.564Z,58.80
2023-05-09T08:26:05.552Z,58.80
2023-05-09T08:28:32.673Z,58.80
2023-05-09T08:30:59.544Z,59.80
2023-05-09T08:33:26.514Z,58.80
2023-05-09T08:35:53.697Z,58.70
2023-05-09T08:38:21.026Z,58.60
2023-05-09T08:40:48.375Z,58.60
2023-05-09T08:43:18.178Z,58.60
2023-05-09T08:45:54.203Z,58.50
2023-05-09T08:48:22.537Z,58.50
2023-05-09T08:50:49.750Z,58.40
2023-05-09T08:53:16.891Z,58.40
2023-05-09T08:55:44.286Z,58.40
2023-05-09T08:58:12.847Z,58.30
2023-05-09T09:00:41.625Z,58.40
2023-05-09T09:03:08.742Z,58.40
2023-05-09T09:05:41.818Z,58.40
2023-05-09T09:08:10.957Z,58.30
2023-05-09T09:10:42.743Z,58.30
2023-05-09T09:13:11.277Z,58.30
2023-05-09T09:15:40.568Z,58.30
2023-05-09T09:18:09.923Z,58.50
2023-05-09T09:20:49.754Z,58.20
2023-05-09T09:23:24.160Z,58.20
2023-05-09T09:25:59.603Z,58.90
2023-05-09T09:28:27.080Z,58.10
2023-05-09T09:30:54.060Z,58.10
2023-05-09T09:33:21.776Z,58.80
2023-05-09T09:35:53.773Z,58.10
2023-05-09T09:38:22.370Z,58.00
2023-05-09T09:40:51.959Z,58.10
2023-05-09T09:43:19.057Z,58.00
2023-05-09T09:45:53.125Z,58.10
2023-05-09T09:48:30.631Z,58.30
2023-05-09T09:50:57.708Z,58.00
2023-05-09T09:53:30.108Z,58.10
2023-05-09T09:55:57.112Z,58.10
2023-05-09T09:58:26.878Z,58.10
2023-05-09T10:01:10.728Z,58.10
2023-05-09T10:03:42.743Z,58.10
2023-05-09T10:06:11.299Z,58.00
2023-05-09T10:08:38.355Z,58.00
2023-05-09T10:11:05.514Z,57.90
2023-05-09T10:13:36.331Z,58.00
2023-05-09T10:16:04.181Z,57.90
2023-05-09T10:18:31.695Z,58.00
2023-05-09T10:21:04.046Z,58.10
2023-05-09T10:23:32.642Z,58.00
2023-05-09T10:26:18.587Z,58.00
2023-05-09T10:28:47.893Z,58.00
2023-05-09T10:31:27.418Z,58.00
2023-05-09T10:33:55.811Z,58.30
2023-05-09T10:36:26.581Z,57.90
2023-05-09T10:38:54.863Z,57.90
2023-05-09T10:41:22.204Z,57.90
2023-05-09T10:43:49.286Z,57.90
2023-05-09T10:46:17.414Z,58.00
2023-05-09T10:48:44.900Z,58.00
2023-05-09T10:51:13.066Z,58.00
2023-05-09T10:53:50.787Z,58.00
2023-05-09T10:56:26.863Z,58.00
2023-05-09T10:58:54.560Z,58.00
2023-05-09T11:01:34.594Z,57.90
2023-05-09T11:04:08.289Z,58.00
2023-05-09T11:06:52.745Z,57.90
2023-05-09T11:09:32.788Z,58.60
2023-05-09T11:12:06.121Z,58.00
2023-05-09T11:14:35.843Z,58.00
2023-05-09T11:17:05.011Z,57.90
2023-05-09T11:19:47.161Z,57.90
2023-05-09T11:22:16.146Z,57.90
2023-05-09T11:24:48.878Z,57.80
2023-05-09T11:27:24.487Z,57.80
2023-05-09T11:29:53.261Z,57.80
2023-05-09T11:32:22.194Z,57.70
2023-05-09T11:34:49.595Z,57.70
2023-05-09T11:37:17.952Z,57.80
2023-05-09T11:40:00.884Z,57.80
2023-05-09T11:42:28.655Z,57.80
2023-05-09T11:44:57.568Z,57.80
2023-05-09T11:47:25.697Z,57.80
2023-05-09T11:49:52.516Z,58.50
2023-05-09T11:52:20.037Z,57.80
2023-05-09T11:54:46.919Z,57.70
2023-05-09T11:57:17.301Z,57.80
2023-05-09T11:59:45.375Z,57.80
2023-05-09T12:02:12.839Z,57.70
2023-05-09T12:04:39.943Z,57.60
2023-05-09T12:07:07.012Z,57.90
2023-05-09T12:09:38.110Z,58.00
2023-05-09T12:12:12.848Z,57.80
2023-05-09T12:14:41.200Z,57.70
2023-05-09T12:17:08.544Z,57.80
2023-05-09T12:19:36.746Z,57.80
2023-05-09T12:22:06.602Z,58.00
2023-05-09T12:24:37.040Z,58.30
2023-05-09T12:27:05.136Z,57.70
2023-05-09T12:29:32.226Z,58.00
2023-05-09T12:31:59.995Z,58.10
2023-05-09T12:34:27.059Z,57.50
2023-05-09T12:36:53.893Z,58.20
2023-05-09T12:39:22.895Z,57.90
2023-05-09T12:42:01.085Z,58.20
2023-05-09T12:44:29.658Z,57.40
2023-05-09T12:46:59.227Z,57.70
2023-05-09T12:49:27.041Z,57.50
2023-05-09T12:51:55.476Z,57.40
2023-05-09T12:54:27.780Z,57.60
2023-05-09T12:56:58.213Z,57.70
2023-05-09T12:59:28.166Z,57.60
2023-05-09T13:02:00.024Z,57.70
2023-05-09T13:04:28.437Z,57.70
2023-05-09T13:06:57.600Z,57.80
2023-05-09T13:09:26.294Z,57.40
2023-05-09T13:11:53.684Z,57.70
2023-05-09T13:14:22.528Z,57.40
2023-05-09T13:16:49.443Z,57.40
2023-05-09T13:19:16.444Z,58.00
2023-05-09T13:21:44.382Z,58.10
2023-05-09T13:24:12.099Z,57.80
2023-05-09T13:26:38.983Z,57.90
2023-05-09T13:29:05.864Z,57.80
2023-05-09T13:31:32.898Z,58.20
2023-05-09T13:33:59.756Z,58.10
2023-05-09T13:36:26.727Z,57.60
2023-05-09T13:38:53.650Z,57.80
2023-05-09T13:41:22.732Z,57.90
2023-05-09T13:43:49.869Z,57.60
2023-05-09T13:46:16.778Z,57.30
2023-05-09T13:48:44.315Z,57.30
2023-05-09T13:51:11.232Z,57.30
2023-05-09T13:53:39.351Z,57.30
2023-05-09T13:56:09.220Z,57.20
2023-05-09T13:58:36.359Z,57.30
2023-05-09T14:01:03.425Z,56.20
2023-05-09T14:03:30.551Z,57.60
2023-05-09T14:05:57.527Z,57.70
2023-05-09T14:08:24.674Z,57.40
2023-05-09T14:10:51.487Z,57.60
2023-05-09T14:13:18.564Z,58.10
2023-05-09T14:15:45.449Z,57.70
2023-05-09T14:18:15.965Z,57.50
2023-05-09T14:20:44.785Z,57.50
2023-05-09T14:23:11.755Z,57.40
2023-05-09T14:25:38.759Z,57.70
2023-05-09T14:28:09.206Z,57.50
2023-05-09T14:30:36.582Z,57.60
2023-05-09T14:33:03.584Z,57.50
2023-05-09T14:35:33.704Z,57.40
2023-05-09T14:38:01.230Z,57.40
2023-05-09T14:40:34.621Z,57.50
2023-05-09T14:43:04.324Z,57.20
2023-05-09T14:45:32.898Z,57.40
2023-05-09T14:48:00.323Z,57.30
2023-05-09T14:50:27.304Z,57.30
2023-05-09T14:52:54.127Z,57.10
2023-05-09T14:55:24.181Z,57.10
2023-05-09T14:57:51.098Z,57.00
2023-05-09T15:00:21.944Z,57.20
2023-05-09T15:02:50.026Z,57.20
2023-05-09T15:05:17.408Z,57.20
2023-05-09T15:07:44.453Z,57.20
2023-05-09T15:10:11.469Z,57.10
2023-05-09T15:12:38.282Z,57.00
2023-05-09T15:15:24.083Z,57.00
2023-05-09T15:17:52.339Z,57.10
2023-05-09T15:20:19.480Z,57.10
2023-05-09T15:22:50.222Z,57.00
2023-05-09T15:25:17.114Z,57.10
2023-05-09T15:27:43.891Z,57.10
2023-05-09T15:30:11.699Z,57.30
2023-05-09T15:32:41.227Z,57.20
2023-05-09T15:35:08.829Z,58.00
2023-05-09T15:37:36.393Z,57.50
2023-05-09T15:40:03.857Z,57.30
2023-05-09T15:42:31.132Z,58.10
2023-05-09T15:44:57.942Z,57.30
2023-05-09T15:47:24.919Z,57.40
2023-05-09T15:49:51.819Z,57.40
2023-05-09T15:52:18.762Z,57.40
2023-05-09T15:54:45.846Z,57.40
2023-05-09T15:57:13.453Z,57.40
2023-05-09T15:59:40.315Z,57.40
2023-05-09T16:02:07.201Z,57.50
2023-05-09T16:04:34.207Z,57.40
2023-05-09T16:07:03.067Z,57.50
2023-05-09T16:09:29.849Z,57.40
2023-05-09T16:11:56.765Z,57.40
2023-05-09T16:14:23.825Z,57.50
2023-05-09T16:16:52.370Z,57.50
2023-05-09T16:19:19.267Z,57.50
2023-05-09T16:21:46.538Z,57.50
2023-05-09T16:24:13.469Z,58.30
2023-05-09T16:26:40.362Z,58.30
2023-05-09T16:29:07.280Z,57.70
2023-05-09T16:31:35.654Z,57.60
2023-05-09T16:34:02.939Z,57.60
2023-05-09T16:36:32.526Z,58.20
2023-05-09T16:38:59.404Z,58.00
2023-05-09T16:41:26.187Z,57.90
2023-05-09T16:43:53.640Z,57.80
2023-05-09T16:46:20.584Z,57.50
2023-05-09T16:48:47.537Z,57.60
2023-05-09T16:51:14.407Z,57.50
2023-05-09T16:53:41.409Z,57.40
2023-05-09T16:56:10.851Z,57.30
2023-05-09T16:58:37.949Z,57.50
2023-05-09T17:01:05.503Z,57.80
2023-05-09T17:03:32.870Z,57.30
2023-05-09T17:05:59.821Z,57.50
2023-05-09T17:08:26.828Z,57.90
2023-05-09T17:10:53.846Z,58.50
2023-05-09T17:13:21.188Z,58.00
2023-05-09T17:15:48.203Z,57.70
2023-05-09T17:18:22.069Z,57.50
2023-05-09T17:20:52.685Z,57.70
2023-05-09T17:23:19.581Z,57.90
2023-05-09T17:25:46.880Z,57.80
2023-05-09T17:28:13.807Z,58.10
2023-05-09T17:30:40.938Z,57.90
2023-05-09T17:33:07.984Z,57.70
2023-05-09T17:35:34.888Z,57.90
2023-05-09T17:38:01.842Z,57.90
2023-05-09T17:40:28.778Z,57.80
2023-05-09T17:42:55.665Z,57.90
2023-05-09T17:45:22.699Z,58.20
2023-05-09T17:47:49.722Z,58.00
2023-05-09T17:50:17.491Z,57.30
2023-05-09T17:52:44.794Z,57.20
2023-05-09T17:55:12.071Z,57.30
2023-05-09T17:57:38.915Z,56.50
2023-05-09T18:00:09.059Z,56.50
2023-05-09T18:02:41.933Z,56.10
2023-05-09T18:05:10.085Z,56.00
2023-05-09T18:07:38.408Z,55.80
2023-05-09T18:10:05.924Z,56.20
2023-05-09T18:12:35.613Z,55.50
2023-05-09T18:15:04.772Z,55.80
2023-05-09T18:17:31.769Z,55.90
2023-05-09T18:19:58.693Z,56.10
2023-05-09T18:22:25.928Z,56.90
2023-05-09T18:24:53.068Z,56.30
2023-05-09T18:27:19.819Z,56.40
2023-05-09T18:29:47.403Z,56.50
2023-05-09T18:32:14.585Z,56.50
2023-05-09T18:34:41.984Z,57.20
2023-05-09T18:37:09.663Z,56.40
2023-05-09T18:39:36.632Z,56.50
2023-05-09T18:42:03.741Z,56.90
2023-05-09T18:44:30.586Z,56.80
2023-05-09T18:46:59.077Z,57.30
2023-05-09T18:49:26.675Z,58.10
2023-05-09T18:51:53.572Z,56.80
2023-05-09T18:54:21.477Z,56.90
2023-05-09T18:56:49.454Z,57.10
2023-05-09T18:59:17.209Z,57.10
2023-05-09T19:01:44.394Z,56.60
2023-05-09T19:04:11.623Z,56.70
2023-05-09T19:06:40.492Z,56.80
2023-05-09T19:09:07.332Z,56.70
2023-05-09T19:11:34.164Z,57.50
2023-05-09T19:14:01.028Z,56.80
2023-05-09T19:16:28.265Z,56.90
2023-05-09T19:18:58.080Z,57.00
2023-05-09T19:21:25.583Z,56.50
2023-05-09T19:23:52.606Z,57.20
2023-05-09T19:26:20.108Z,56.80
2023-05-09T19:28:47.167Z,56.80
2023-05-09T19:31:15.610Z,57.20
2023-05-09T19:33:45.389Z,56.90
2023-05-09T19:36:12.800Z,56.90
2023-05-09T19:38:40.192Z,56.90
2023-05-09T19:41:07.053Z,56.60
2023-05-09T19:43:33.997Z,56.90
2023-05-09T19:46:00.884Z,56.60
2023-05-09T19:48:27.853Z,56.90
2023-05-09T19:51:00.412Z,56.50
2023-05-09T19:53:27.312Z,57.10
2023-05-09T19:55:54.339Z,56.70
2023-05-09T19:58:21.254Z,56.60
2023-05-09T20:00:51.440Z,57.30
2023-05-09T20:03:18.417Z,56.30
2023-05-09T20:05:45.485Z,56.40
2023-05-09T20:08:12.356Z,56.40
2023-05-09T20:10:39.135Z,56.70
2023-05-09T20:13:06.578Z,56.40
2023-05-09T20:15:33.955Z,56.60
2023-05-09T20:18:03.540Z,58.90
2023-05-09T20:20:32.199Z,57.00
2023-05-09T20:22:59.331Z,56.70
2023-05-09T20:25:27.231Z,56.90
2023-05-09T20:27:53.980Z,56.40
2023-05-09T20:30:21.063Z,56.20
2023-05-09T20:32:48.053Z,56.90
2023-05-09T20:35:15.028Z,56.70
2023-05-09T20:37:43.865Z,56.60
2023-05-09T20:40:10.993Z,56.60
2023-05-09T20:42:38.069Z,56.40
2023-05-09T20:45:05.328Z,56.20
2023-05-09T20:47:34.086Z,56.50
2023-05-09T20:50:04.193Z,57.30
2023-05-09T20:52:31.100Z,56.60
2023-05-09T20:54:59.174Z,56.10
2023-05-09T20:57:26.076Z,56.40
2023-05-09T20:59:52.851Z,56.40
2023-05-09T21:02:19.897Z,56.70
2023-05-09T21:04:46.739Z,56.70
2023-05-09T21:07:13.626Z,56.30
2023-05-09T21:09:41.076Z,56.00
2023-05-09T21:12:09.256Z,56.70
2023-05-09T21:14:38.045Z,56.80
2023-05-09T21:17:04.963Z,56.90
2023-05-09T21:19:34.132Z,56.90
2023-05-09T21:22:01.113Z,56.70
2023-05-09T21:24:28.093Z,56.60
2023-05-09T21:26:54.949Z,56.70
2023-05-09T21:29:21.822Z,57.20
2023-05-09T21:31:48.770Z,56.90
2023-05-09T21:34:15.678Z,56.90
2023-05-09T21:36:42.514Z,57.20
2023-05-09T21:39:10.769Z,56.70
2023-05-09T21:41:39.355Z,57.00
2023-05-09T21:44:11.952Z,57.10
2023-05-09T21:46:38.982Z,56.70
2023-05-09T21:49:06.507Z,56.80
2023-05-09T21:51:33.640Z,57.10
2023-05-09T21:54:01.172Z,57.30
2023-05-09T21:56:28.006Z,57.50
2023-05-09T21:58:55.220Z,56.70
2023-05-09T22:01:22.179Z,57.50
2023-05-09T22:03:49.147Z,56.90
2023-05-09T22:06:16.098Z,57.30
2023-05-09T22:08:42.951Z,57.30
2023-05-09T22:11:10.202Z,57.00
2023-05-09T22:13:37.904Z,57.20
2023-05-09T22:16:05.103Z,56.80
2023-05-09T22:18:32.042Z,57.50
2023-05-09T22:20:59.074Z,56.90
2023-05-09T22:23:25.977Z,57.10
2023-05-09T22:25:54.097Z,57.00
2023-05-09T22:28:21.012Z,56.90
2023-05-09T22:30:47.941Z,57.20
2023-05-09T22:33:14.847Z,57.50
2023-05-09T22:35:41.891Z,57.50
2023-05-09T22:38:08.724Z,57.60
2023-05-09T22:40:36.062Z,57.60
2023-05-09T22:43:03.041Z,57.60
2023-05-09T22:45:30.034Z,57.30
2023-05-09T22:47:57.511Z,57.50
2023-05-09T22:50:24.443Z,57.80
2023-05-09T22:52:51.485Z,57.80
2023-05-09T22:55:18.422Z,57.50
2023-05-09T22:57:45.218Z,57.60
2023-05-09T23:00:12.715Z,57.60
2023-05-09T23:02:39.741Z,57.50
2023-05-09T23:05:08.667Z,57.80
2023-05-09T23:07:35.554Z,57.80
2023-05-09T23:10:02.591Z,57.80
2023-05-09T23:12:29.397Z,58.00
2023-05-09T23:14:56.386Z,58.00
2023-05-09T23:17:23.303Z,57.70
2023-05-09T23:19:50.242Z,57.70
2023-05-09T23:22:17.108Z,57.80
2023-05-09T23:24:44.068Z,57.80
2023-05-09T23:27:11.509Z,57.80
2023-05-09T23:29:38.332Z,57.80
2023-05-09T23:32:05.385Z,58.10
2023-05-09T23:34:32.353Z,57.80
2023-05-09T23:36:59.166Z,57.90
2023-05-09T23:39:26.325Z,57.60
2023-05-09T23:41:53.150Z,58.30
2023-05-09T23:44:20.353Z,58.00
2023-05-09T23:46:47.208Z,57.80
2023-05-09T23:49:14.616Z,58.10
2023-05-09T23:51:41.950Z,57.60
2023-05-09T23:54:08.788Z,58.30
2023-05-09T23:56:35.714Z,57.90
2023-05-09T23:59:02.533Z,57.90
